sensor_id;sensor_type;location;lat;lon;timestamp;temperature;humidity
26505;DHT22;19493;48.042;7.584;2023-03-23T00:01:56;12.80;99.20
26505;DHT22;19493;48.042;7.584;2023-03-23T00:04:21;12.70;99.90
26505;DHT22;19493;48.042;7.584;2023-03-23T00:06:48;12.60;99.90
26505;DHT22;19493;48.042;7.584;2023-03-23T00:09:14;12.60;99.90
26505;DHT22;19493;48.042;7.584;2023-03-23T00:11:42;12.50;99.90
26505;DHT22;19493;48.042;7.584;2023-03-23T00:14:09;12.50;99.90
26505;DHT22;19493;48.042;7.584;2023-03-23T00:16:40;12.60;99.90
26505;DHT22;19493;48.042;7.584;2023-03-23T00:19:12;12.60;99.90
26505;DHT22;19493;48.042;7.584;2023-03-23T00:21:39;12.60;99.90
26505;DHT22;19493;48.042;7.584;2023-03-23T00:24:12;12.70;99.90
26505;DHT22;19493;48.042;7.584;2023-03-23T00:26:39;12.80;99.90
26505;DHT22;19493;48.042;7.584;2023-03-23T00:29:08;12.90;99.90
26505;DHT22;19493;48.042;7.584;2023-03-23T00:31:39;13.00;99.90
26505;DHT22;19493;48.042;7.584;2023-03-23T00:34:05;13.10;99.90
26505;DHT22;19493;48.042;7.584;2023-03-23T00:36:32;13.30;99.90
26505;DHT22;19493;48.042;7.584;2023-03-23T00:39:01;13.40;99.90
26505;DHT22;19493;48.042;7.584;2023-03-23T00:41:28;13.50;99.90
26505;DHT22;19493;48.042;7.584;2023-03-23T00:43:55;13.70;99.90
26505;DHT22;19493;48.042;7.584;2023-03-23T00:46:21;13.70;99.90
26505;DHT22;19493;48.042;7.584;2023-03-23T00:48:47;13.80;99.90
26505;DHT22;19493;48.042;7.584;2023-03-23T00:51:13;14.00;99.90
26505;DHT22;19493;48.042;7.584;2023-03-23T00:53:39;14.10;99.90
26505;DHT22;19493;48.042;7.584;2023-03-23T00:56:06;14.20;99.90
26505;DHT22;19493;48.042;7.584;2023-03-23T00:58:32;14.30;99.80
26505;DHT22;19493;48.042;7.584;2023-03-23T01:00:57;14.50;99.20
26505;DHT22;19493;48.042;7.584;2023-03-23T01:03:23;14.50;99.30
26505;DHT22;19493;48.042;7.584;2023-03-23T01:05:51;14.50;99.30
26505;DHT22;19493;48.042;7.584;2023-03-23T01:08:18;14.50;98.70
26505;DHT22;19493;48.042;7.584;2023-03-23T01:10:47;14.60;98.60
26505;DHT22;19493;48.042;7.584;2023-03-23T01:13:14;14.60;98.70
26505;DHT22;19493;48.042;7.584;2023-03-23T01:15:40;14.50;98.70
26505;DHT22;19493;48.042;7.584;2023-03-23T01:18:05;14.50;98.50
26505;DHT22;19493;48.042;7.584;2023-03-23T01:20:31;14.50;98.30
26505;DHT22;19493;48.042;7.584;2023-03-23T01:22:58;14.50;97.90
26505;DHT22;19493;48.042;7.584;2023-03-23T01:25:27;14.60;97.90
26505;DHT22;19493;48.042;7.584;2023-03-23T01:27:53;14.60;97.80
26505;DHT22;19493;48.042;7.584;2023-03-23T01:30:18;14.60;97.80
26505;DHT22;19493;48.042;7.584;2023-03-23T01:32:44;14.50;97.60
26505;DHT22;19493;48.042;7.584;2023-03-23T01:35:09;14.60;97.20
26505;DHT22;19493;48.042;7.584;2023-03-23T01:37:37;14.60;96.90
26505;DHT22;19493;48.042;7.584;2023-03-23T01:40:02;14.70;96.60
26505;DHT22;19493;48.042;7.584;2023-03-23T01:42:32;14.70;96.40
26505;DHT22;19493;48.042;7.584;2023-03-23T01:47:43;14.80;95.50
26505;DHT22;19493;48.042;7.584;2023-03-23T01:50:08;14.90;95.30
26505;DHT22;19493;48.042;7.584;2023-03-23T01:52:34;14.90;94.70
26505;DHT22;19493;48.042;7.584;2023-03-23T01:55:04;15.00;94.60
26505;DHT22;19493;48.042;7.584;2023-03-23T01:57:31;15.00;94.10
26505;DHT22;19493;48.042;7.584;2023-03-23T02:00:01;15.00;93.80
26505;DHT22;19493;48.042;7.584;2023-03-23T02:02:34;15.00;94.00
26505;DHT22;19493;48.042;7.584;2023-03-23T02:05:06;14.90;94.10
26505;DHT22;19493;48.042;7.584;2023-03-23T02:07:32;14.80;94.10
26505;DHT22;19493;48.042;7.584;2023-03-23T02:09:58;14.80;94.30
26505;DHT22;19493;48.042;7.584;2023-03-23T02:12:25;14.70;94.30
26505;DHT22;19493;48.042;7.584;2023-03-23T02:14:51;14.70;94.00
26505;DHT22;19493;48.042;7.584;2023-03-23T02:28:30;14.80;92.70
26505;DHT22;19493;48.042;7.584;2023-03-23T02:34:18;14.90;92.80
26505;DHT22;19493;48.042;7.584;2023-03-23T02:36:50;14.80;92.70
26505;DHT22;19493;48.042;7.584;2023-03-23T02:39:24;14.80;92.50
26505;DHT22;19493;48.042;7.584;2023-03-23T02:42:18;14.80;92.10
26505;DHT22;19493;48.042;7.584;2023-03-23T02:44:47;14.90;91.80
26505;DHT22;19493;48.042;7.584;2023-03-23T02:47:24;15.00;91.70
26505;DHT22;19493;48.042;7.584;2023-03-23T02:49:52;15.00;91.40
26505;DHT22;19493;48.042;7.584;2023-03-23T02:52:22;15.00;91.40
26505;DHT22;19493;48.042;7.584;2023-03-23T02:54:51;14.90;91.40
26505;DHT22;19493;48.042;7.584;2023-03-23T02:57:17;14.90;91.40
26505;DHT22;19493;48.042;7.584;2023-03-23T02:59:42;14.90;91.80
26505;DHT22;19493;48.042;7.584;2023-03-23T03:02:16;14.80;91.90
26505;DHT22;19493;48.042;7.584;2023-03-23T03:04:52;14.70;92.10
26505;DHT22;19493;48.042;7.584;2023-03-23T03:09:59;14.60;92.30
26505;DHT22;19493;48.042;7.584;2023-03-23T03:12:41;14.60;92.10
26505;DHT22;19493;48.042;7.584;2023-03-23T03:15:19;14.70;92.00
26505;DHT22;19493;48.042;7.584;2023-03-23T03:18:06;14.70;91.80
26505;DHT22;19493;48.042;7.584;2023-03-23T03:20:36;14.70;91.80
26505;DHT22;19493;48.042;7.584;2023-03-23T03:23:04;14.70;91.60
26505;DHT22;19493;48.042;7.584;2023-03-23T03:25:33;14.70;91.50
26505;DHT22;19493;48.042;7.584;2023-03-23T03:27:58;14.80;91.40
26505;DHT22;19493;48.042;7.584;2023-03-23T03:30:28;14.80;91.30
26505;DHT22;19493;48.042;7.584;2023-03-23T03:32:56;14.80;91.20
26505;DHT22;19493;48.042;7.584;2023-03-23T03:35:23;14.80;91.30
26505;DHT22;19493;48.042;7.584;2023-03-23T03:37:49;14.70;91.40
26505;DHT22;19493;48.042;7.584;2023-03-23T03:40:19;14.70;91.50
26505;DHT22;19493;48.042;7.584;2023-03-23T03:42:46;14.70;91.30
26505;DHT22;19493;48.042;7.584;2023-03-23T03:45:17;14.70;91.10
26505;DHT22;19493;48.042;7.584;2023-03-23T03:47:43;14.80;91.00
26505;DHT22;19493;48.042;7.584;2023-03-23T03:50:10;14.80;91.00
26505;DHT22;19493;48.042;7.584;2023-03-23T03:52:37;14.80;90.80
26505;DHT22;19493;48.042;7.584;2023-03-23T03:55:04;14.80;90.80
26505;DHT22;19493;48.042;7.584;2023-03-23T03:57:30;14.90;90.80
26505;DHT22;19493;48.042;7.584;2023-03-23T03:59:56;15.00;90.40
26505;DHT22;19493;48.042;7.584;2023-03-23T04:02:21;15.00;90.60
26505;DHT22;19493;48.042;7.584;2023-03-23T04:04:48;15.00;90.30
26505;DHT22;19493;48.042;7.584;2023-03-23T04:07:13;15.10;90.20
26505;DHT22;19493;48.042;7.584;2023-03-23T04:09:44;15.10;89.50
26505;DHT22;19493;48.042;7.584;2023-03-23T04:12:14;15.20;88.90
26505;DHT22;19493;48.042;7.584;2023-03-23T04:14:40;15.30;88.70
26505;DHT22;19493;48.042;7.584;2023-03-23T04:17:06;15.30;88.80
26505;DHT22;19493;48.042;7.584;2023-03-23T04:19:32;15.30;88.50
26505;DHT22;19493;48.042;7.584;2023-03-23T04:21:58;15.30;88.10
26505;DHT22;19493;48.042;7.584;2023-03-23T04:24:25;15.50;87.90
26505;DHT22;19493;48.042;7.584;2023-03-23T04:26:53;15.50;87.30
26505;DHT22;19493;48.042;7.584;2023-03-23T04:29:19;15.50;87.30
26505;DHT22;19493;48.042;7.584;2023-03-23T04:31:45;15.60;87.40
26505;DHT22;19493;48.042;7.584;2023-03-23T04:34:11;15.50;87.40
26505;DHT22;19493;48.042;7.584;2023-03-23T04:36:40;15.50;87.50
26505;DHT22;19493;48.042;7.584;2023-03-23T04:39:07;15.50;87.50
26505;DHT22;19493;48.042;7.584;2023-03-23T04:41:36;15.40;87.70
26505;DHT22;19493;48.042;7.584;2023-03-23T04:44:02;15.50;87.60
26505;DHT22;19493;48.042;7.584;2023-03-23T04:46:28;15.50;87.80
26505;DHT22;19493;48.042;7.584;2023-03-23T04:49:00;15.50;88.00
26505;DHT22;19493;48.042;7.584;2023-03-23T04:51:27;15.60;87.90
26505;DHT22;19493;48.042;7.584;2023-03-23T04:53:54;15.60;87.90
26505;DHT22;19493;48.042;7.584;2023-03-23T04:56:20;15.60;87.60
26505;DHT22;19493;48.042;7.584;2023-03-23T04:58:46;15.60;87.90
26505;DHT22;19493;48.042;7.584;2023-03-23T05:01:12;15.60;87.70
26505;DHT22;19493;48.042;7.584;2023-03-23T05:03:41;15.70;87.70
26505;DHT22;19493;48.042;7.584;2023-03-23T05:06:06;15.60;87.80
26505;DHT22;19493;48.042;7.584;2023-03-23T05:08:32;15.50;88.10
26505;DHT22;19493;48.042;7.584;2023-03-23T05:10:59;15.50;88.60
26505;DHT22;19493;48.042;7.584;2023-03-23T05:13:27;15.50;88.40
26505;DHT22;19493;48.042;7.584;2023-03-23T05:15:53;15.50;88.50
26505;DHT22;19493;48.042;7.584;2023-03-23T05:18:18;15.40;88.90
26505;DHT22;19493;48.042;7.584;2023-03-23T05:20:46;15.40;89.20
26505;DHT22;19493;48.042;7.584;2023-03-23T05:23:12;15.30;89.60
26505;DHT22;19493;48.042;7.584;2023-03-23T05:25:38;15.30;90.00
26505;DHT22;19493;48.042;7.584;2023-03-23T05:28:10;15.20;90.10
26505;DHT22;19493;48.042;7.584;2023-03-23T05:30:37;15.20;90.30
26505;DHT22;19493;48.042;7.584;2023-03-23T05:33:03;15.10;90.60
26505;DHT22;19493;48.042;7.584;2023-03-23T05:35:29;15.10;90.70
26505;DHT22;19493;48.042;7.584;2023-03-23T05:37:55;15.10;90.70
26505;DHT22;19493;48.042;7.584;2023-03-23T05:40:21;15.10;90.80
26505;DHT22;19493;48.042;7.584;2023-03-23T05:42:47;15.00;91.00
26505;DHT22;19493;48.042;7.584;2023-03-23T05:45:13;15.00;91.10
26505;DHT22;19493;48.042;7.584;2023-03-23T05:47:40;15.00;91.20
26505;DHT22;19493;48.042;7.584;2023-03-23T05:50:07;15.00;91.30
26505;DHT22;19493;48.042;7.584;2023-03-23T05:52:35;14.90;91.40
26505;DHT22;19493;48.042;7.584;2023-03-23T05:55:02;14.90;91.50
26505;DHT22;19493;48.042;7.584;2023-03-23T05:57:29;14.90;91.60
26505;DHT22;19493;48.042;7.584;2023-03-23T05:59:54;14.90;91.80
26505;DHT22;19493;48.042;7.584;2023-03-23T06:02:21;14.80;91.80
26505;DHT22;19493;48.042;7.584;2023-03-23T06:04:48;14.90;91.90
26505;DHT22;19493;48.042;7.584;2023-03-23T06:07:14;14.90;91.80
26505;DHT22;19493;48.042;7.584;2023-03-23T06:09:41;14.90;91.90
26505;DHT22;19493;48.042;7.584;2023-03-23T06:12:07;14.80;92.10
26505;DHT22;19493;48.042;7.584;2023-03-23T06:14:33;14.80;92.30
26505;DHT22;19493;48.042;7.584;2023-03-23T06:16:59;14.70;92.40
26505;DHT22;19493;48.042;7.584;2023-03-23T06:19:24;14.70;92.60
26505;DHT22;19493;48.042;7.584;2023-03-23T06:21:53;14.60;92.70
26505;DHT22;19493;48.042;7.584;2023-03-23T06:24:19;14.60;92.80
26505;DHT22;19493;48.042;7.584;2023-03-23T06:26:46;14.60;92.90
26505;DHT22;19493;48.042;7.584;2023-03-23T06:29:13;14.60;93.00
26505;DHT22;19493;48.042;7.584;2023-03-23T06:31:45;14.60;93.10
26505;DHT22;19493;48.042;7.584;2023-03-23T06:34:12;14.60;93.20
26505;DHT22;19493;48.042;7.584;2023-03-23T06:36:38;14.60;93.30
26505;DHT22;19493;48.042;7.584;2023-03-23T06:39:04;14.60;93.50
26505;DHT22;19493;48.042;7.584;2023-03-23T06:41:33;14.50;93.60
26505;DHT22;19493;48.042;7.584;2023-03-23T06:44:00;14.50;93.70
26505;DHT22;19493;48.042;7.584;2023-03-23T06:46:26;14.60;93.50
26505;DHT22;19493;48.042;7.584;2023-03-23T06:48:52;14.60;93.70
26505;DHT22;19493;48.042;7.584;2023-03-23T06:51:18;14.60;93.80
26505;DHT22;19493;48.042;7.584;2023-03-23T06:53:44;14.60;93.60
26505;DHT22;19493;48.042;7.584;2023-03-23T06:56:10;14.60;93.60
26505;DHT22;19493;48.042;7.584;2023-03-23T06:58:37;14.60;93.70
26505;DHT22;19493;48.042;7.584;2023-03-23T07:01:03;14.60;93.70
26505;DHT22;19493;48.042;7.584;2023-03-23T07:03:29;14.60;93.70
26505;DHT22;19493;48.042;7.584;2023-03-23T07:05:56;14.70;93.80
26505;DHT22;19493;48.042;7.584;2023-03-23T07:08:22;14.70;93.90
26505;DHT22;19493;48.042;7.584;2023-03-23T07:10:51;14.70;94.00
26505;DHT22;19493;48.042;7.584;2023-03-23T07:13:18;14.60;94.90
26505;DHT22;19493;48.042;7.584;2023-03-23T07:15:43;14.30;95.80
26505;DHT22;19493;48.042;7.584;2023-03-23T07:18:09;14.00;96.70
26505;DHT22;19493;48.042;7.584;2023-03-23T07:20:35;13.70;97.40
26505;DHT22;19493;48.042;7.584;2023-03-23T07:23:01;13.80;97.80
26505;DHT22;19493;48.042;7.584;2023-03-23T07:25:27;13.90;97.40
26505;DHT22;19493;48.042;7.584;2023-03-23T07:27:53;14.10;97.20
26505;DHT22;19493;48.042;7.584;2023-03-23T07:30:18;14.30;97.10
26505;DHT22;19493;48.042;7.584;2023-03-23T07:32:44;14.30;97.10
26505;DHT22;19493;48.042;7.584;2023-03-23T07:35:10;14.40;97.00
26505;DHT22;19493;48.042;7.584;2023-03-23T07:37:36;14.40;97.00
26505;DHT22;19493;48.042;7.584;2023-03-23T07:40:03;14.50;97.40
26505;DHT22;19493;48.042;7.584;2023-03-23T07:42:45;14.50;97.80
26505;DHT22;19493;48.042;7.584;2023-03-23T07:45:12;14.20;98.70
26505;DHT22;19493;48.042;7.584;2023-03-23T07:47:40;13.80;99.60
26505;DHT22;19493;48.042;7.584;2023-03-23T07:50:06;13.60;99.90
26505;DHT22;19493;48.042;7.584;2023-03-23T07:52:35;13.70;99.90
26505;DHT22;19493;48.042;7.584;2023-03-23T07:55:02;13.50;99.90
26505;DHT22;19493;48.042;7.584;2023-03-23T07:57:29;13.30;99.90
26505;DHT22;19493;48.042;7.584;2023-03-23T07:59:55;13.20;99.90
26505;DHT22;19493;48.042;7.584;2023-03-23T08:02:22;12.90;99.90
26505;DHT22;19493;48.042;7.584;2023-03-23T08:04:48;12.80;99.90
26505;DHT22;19493;48.042;7.584;2023-03-23T08:07:14;12.70;99.90
26505;DHT22;19493;48.042;7.584;2023-03-23T08:09:42;12.70;99.90
26505;DHT22;19493;48.042;7.584;2023-03-23T08:12:07;12.80;99.90
26505;DHT22;19493;48.042;7.584;2023-03-23T08:14:33;12.70;99.90
26505;DHT22;19493;48.042;7.584;2023-03-23T08:16:59;12.70;99.90
26505;DHT22;19493;48.042;7.584;2023-03-23T08:19:25;12.80;99.90
26505;DHT22;19493;48.042;7.584;2023-03-23T08:21:51;13.10;99.90
26505;DHT22;19493;48.042;7.584;2023-03-23T08:24:17;13.60;99.90
26505;DHT22;19493;48.042;7.584;2023-03-23T08:26:42;14.00;99.90
26505;DHT22;19493;48.042;7.584;2023-03-23T08:29:08;14.30;99.90
26505;DHT22;19493;48.042;7.584;2023-03-23T08:31:34;14.50;99.90
26505;DHT22;19493;48.042;7.584;2023-03-23T08:34:01;14.60;99.90
26505;DHT22;19493;48.042;7.584;2023-03-23T08:36:27;14.70;99.90
26505;DHT22;19493;48.042;7.584;2023-03-23T08:38:53;14.70;99.90
26505;DHT22;19493;48.042;7.584;2023-03-23T08:41:19;14.70;99.90
26505;DHT22;19493;48.042;7.584;2023-03-23T08:43:46;14.80;99.90
26505;DHT22;19493;48.042;7.584;2023-03-23T08:46:12;14.80;99.90
26505;DHT22;19493;48.042;7.584;2023-03-23T08:48:38;14.80;99.90
26505;DHT22;19493;48.042;7.584;2023-03-23T08:51:05;14.80;99.90
26505;DHT22;19493;48.042;7.584;2023-03-23T08:53:38;14.90;99.90
26505;DHT22;19493;48.042;7.584;2023-03-23T08:56:09;14.90;99.90
26505;DHT22;19493;48.042;7.584;2023-03-23T08:58:38;14.90;99.90
26505;DHT22;19493;48.042;7.584;2023-03-23T09:01:06;14.90;99.90
26505;DHT22;19493;48.042;7.584;2023-03-23T09:03:33;14.90;99.90
26505;DHT22;19493;48.042;7.584;2023-03-23T09:05:59;14.90;99.90
26505;DHT22;19493;48.042;7.584;2023-03-23T09:08:26;14.80;99.90
26505;DHT22;19493;48.042;7.584;2023-03-23T09:11:00;14.90;99.90
26505;DHT22;19493;48.042;7.584;2023-03-23T09:13:26;14.90;99.90
26505;DHT22;19493;48.042;7.584;2023-03-23T09:15:52;14.90;99.90
26505;DHT22;19493;48.042;7.584;2023-03-23T09:18:18;15.00;99.90
26505;DHT22;19493;48.042;7.584;2023-03-23T09:20:44;15.00;99.90
26505;DHT22;19493;48.042;7.584;2023-03-23T09:23:09;15.10;99.90
26505;DHT22;19493;48.042;7.584;2023-03-23T09:25:35;15.20;99.90
26505;DHT22;19493;48.042;7.584;2023-03-23T09:28:01;15.20;99.90
26505;DHT22;19493;48.042;7.584;2023-03-23T09:30:30;15.30;99.90
26505;DHT22;19493;48.042;7.584;2023-03-23T09:32:56;15.40;99.90
26505;DHT22;19493;48.042;7.584;2023-03-23T09:35:23;15.40;99.90
26505;DHT22;19493;48.042;7.584;2023-03-23T09:37:50;15.50;99.90
26505;DHT22;19493;48.042;7.584;2023-03-23T09:40:43;15.50;99.90
26505;DHT22;19493;48.042;7.584;2023-03-23T09:43:39;15.60;99.90
26505;DHT22;19493;48.042;7.584;2023-03-23T09:46:35;15.70;99.90
26505;DHT22;19493;48.042;7.584;2023-03-23T09:49:08;15.80;99.90
26505;DHT22;19493;48.042;7.584;2023-03-23T09:51:39;15.80;99.90
26505;DHT22;19493;48.042;7.584;2023-03-23T09:54:13;15.90;99.90
26505;DHT22;19493;48.042;7.584;2023-03-23T09:56:39;16.00;99.50
26505;DHT22;19493;48.042;7.584;2023-03-23T09:59:19;16.00;99.30
26505;DHT22;19493;48.042;7.584;2023-03-23T10:01:49;16.10;99.00
26505;DHT22;19493;48.042;7.584;2023-03-23T10:07:14;16.50;98.40
26505;DHT22;19493;48.042;7.584;2023-03-23T10:09:42;16.80;98.20
26505;DHT22;19493;48.042;7.584;2023-03-23T10:15:11;17.30;97.10
26505;DHT22;19493;48.042;7.584;2023-03-23T10:17:58;17.40;97.20
26505;DHT22;19493;48.042;7.584;2023-03-23T10:25:42;17.90;95.70
26505;DHT22;19493;48.042;7.584;2023-03-23T10:28:20;18.20;95.60
26505;DHT22;19493;48.042;7.584;2023-03-23T10:30:51;18.40;95.20
26505;DHT22;19493;48.042;7.584;2023-03-23T10:33:20;18.60;94.60
26505;DHT22;19493;48.042;7.584;2023-03-23T10:35:51;18.80;94.70
26505;DHT22;19493;48.042;7.584;2023-03-23T10:38:29;18.90;93.60
26505;DHT22;19493;48.042;7.584;2023-03-23T10:41:00;18.80;91.60
26505;DHT22;19493;48.042;7.584;2023-03-23T10:43:28;19.00;91.20
26505;DHT22;19493;48.042;7.584;2023-03-23T10:46:02;19.30;90.50
26505;DHT22;19493;48.042;7.584;2023-03-23T10:48:31;19.40;90.10
26505;DHT22;19493;48.042;7.584;2023-03-23T10:51:00;19.40;89.10
26505;DHT22;19493;48.042;7.584;2023-03-23T10:53:35;19.10;88.50
26505;DHT22;19493;48.042;7.584;2023-03-23T10:56:01;19.20;88.60
26505;DHT22;19493;48.042;7.584;2023-03-23T10:58:29;19.40;86.90
26505;DHT22;19493;48.042;7.584;2023-03-23T11:00:56;19.60;86.60
26505;DHT22;19493;48.042;7.584;2023-03-23T11:03:25;19.60;85.60
26505;DHT22;19493;48.042;7.584;2023-03-23T11:05:59;19.70;85.10
26505;DHT22;19493;48.042;7.584;2023-03-23T11:08:28;19.70;84.40
26505;DHT22;19493;48.042;7.584;2023-03-23T11:10:58;19.90;84.10
26505;DHT22;19493;48.042;7.584;2023-03-23T11:13:32;20.20;81.30
26505;DHT22;19493;48.042;7.584;2023-03-23T11:15:58;21.00;80.80
26505;DHT22;19493;48.042;7.584;2023-03-23T11:18:39;21.40;77.20
26505;DHT22;19493;48.042;7.584;2023-03-23T11:21:06;20.80;76.60
26505;DHT22;19493;48.042;7.584;2023-03-23T11:23:40;20.50;77.80
26505;DHT22;19493;48.042;7.584;2023-03-23T11:26:24;20.70;77.30
26505;DHT22;19493;48.042;7.584;2023-03-23T11:31:36;20.50;75.20
26505;DHT22;19493;48.042;7.584;2023-03-23T11:34:04;20.30;76.10
26505;DHT22;19493;48.042;7.584;2023-03-23T11:36:37;20.10;76.30
26505;DHT22;19493;48.042;7.584;2023-03-23T11:39:22;20.10;76.60
26505;DHT22;19493;48.042;7.584;2023-03-23T11:41:48;20.00;76.30
26505;DHT22;19493;48.042;7.584;2023-03-23T11:44:14;19.90;74.70
26505;DHT22;19493;48.042;7.584;2023-03-23T11:49:29;19.70;75.70
26505;DHT22;19493;48.042;7.584;2023-03-23T11:52:02;19.40;76.00
26505;DHT22;19493;48.042;7.584;2023-03-23T11:54:54;19.40;76.40
26505;DHT22;19493;48.042;7.584;2023-03-23T11:57:21;19.40;77.00
26505;DHT22;19493;48.042;7.584;2023-03-23T11:59:49;19.40;76.10
26505;DHT22;19493;48.042;7.584;2023-03-23T12:08:22;19.20;76.60
26505;DHT22;19493;48.042;7.584;2023-03-23T12:13:35;19.10;75.60
26505;DHT22;19493;48.042;7.584;2023-03-23T12:16:17;19.20;75.80
26505;DHT22;19493;48.042;7.584;2023-03-23T12:19:01;19.40;75.30
26505;DHT22;19493;48.042;7.584;2023-03-23T12:21:41;19.50;74.40
26505;DHT22;19493;48.042;7.584;2023-03-23T12:26:50;19.60;73.50
26505;DHT22;19493;48.042;7.584;2023-03-23T12:32:02;19.70;73.00
26505;DHT22;19493;48.042;7.584;2023-03-23T12:34:41;19.70;72.50
26505;DHT22;19493;48.042;7.584;2023-03-23T12:48:03;19.70;72.10
26505;DHT22;19493;48.042;7.584;2023-03-23T12:50:45;19.60;72.50
26505;DHT22;19493;48.042;7.584;2023-03-23T12:53:19;19.60;72.10
26505;DHT22;19493;48.042;7.584;2023-03-23T12:55:50;19.60;71.30
26505;DHT22;19493;48.042;7.584;2023-03-23T12:58:26;19.50;71.90
26505;DHT22;19493;48.042;7.584;2023-03-23T13:01:09;19.40;71.60
26505;DHT22;19493;48.042;7.584;2023-03-23T13:03:46;19.20;71.90
26505;DHT22;19493;48.042;7.584;2023-03-23T13:06:27;19.00;72.80
26505;DHT22;19493;48.042;7.584;2023-03-23T13:11:50;18.80;73.20
26505;DHT22;19493;48.042;7.584;2023-03-23T13:19:45;18.90;72.70
26505;DHT22;19493;48.042;7.584;2023-03-23T13:22:39;18.90;73.30
26505;DHT22;19493;48.042;7.584;2023-03-23T13:25:15;18.90;72.60
26505;DHT22;19493;48.042;7.584;2023-03-23T13:27:41;18.90;73.10
26505;DHT22;19493;48.042;7.584;2023-03-23T13:30:19;18.90;72.70
26505;DHT22;19493;48.042;7.584;2023-03-23T13:32:50;18.90;73.00
26505;DHT22;19493;48.042;7.584;2023-03-23T13:35:18;18.90;72.30
26505;DHT22;19493;48.042;7.584;2023-03-23T13:37:48;18.90;72.90
26505;DHT22;19493;48.042;7.584;2023-03-23T13:40:29;18.90;73.40
26505;DHT22;19493;48.042;7.584;2023-03-23T13:42:57;18.80;72.80
26505;DHT22;19493;48.042;7.584;2023-03-23T13:45:46;18.70;73.30
26505;DHT22;19493;48.042;7.584;2023-03-23T13:51:00;18.70;73.70
26505;DHT22;19493;48.042;7.584;2023-03-23T13:53:51;18.70;73.40
26505;DHT22;19493;48.042;7.584;2023-03-23T13:56:32;18.60;73.40
26505;DHT22;19493;48.042;7.584;2023-03-23T13:59:31;18.60;74.10
26505;DHT22;19493;48.042;7.584;2023-03-23T14:02:27;18.50;73.90
26505;DHT22;19493;48.042;7.584;2023-03-23T14:04:55;18.30;73.90
26505;DHT22;19493;48.042;7.584;2023-03-23T14:07:21;18.20;73.90
26505;DHT22;19493;48.042;7.584;2023-03-23T14:09:50;18.20;74.10
26505;DHT22;19493;48.042;7.584;2023-03-23T14:12:19;18.10;74.40
26505;DHT22;19493;48.042;7.584;2023-03-23T14:14:49;18.10;74.80
26505;DHT22;19493;48.042;7.584;2023-03-23T14:19:47;18.00;74.70
26505;DHT22;19493;48.042;7.584;2023-03-23T14:22:23;17.90;76.20
26505;DHT22;19493;48.042;7.584;2023-03-23T14:24:52;17.90;76.00
26505;DHT22;19493;48.042;7.584;2023-03-23T14:27:22;17.80;75.70
26505;DHT22;19493;48.042;7.584;2023-03-23T14:29:59;17.80;75.10
26505;DHT22;19493;48.042;7.584;2023-03-23T14:32:27;17.80;74.40
26505;DHT22;19493;48.042;7.584;2023-03-23T14:34:53;17.90;74.40
26505;DHT22;19493;48.042;7.584;2023-03-23T14:37:20;17.90;73.80
26505;DHT22;19493;48.042;7.584;2023-03-23T14:39:49;17.90;74.50
26505;DHT22;19493;48.042;7.584;2023-03-23T14:42:17;17.90;74.40
26505;DHT22;19493;48.042;7.584;2023-03-23T14:44:47;18.00;74.70
26505;DHT22;19493;48.042;7.584;2023-03-23T14:47:21;18.00;75.30
26505;DHT22;19493;48.042;7.584;2023-03-23T14:49:47;17.90;75.00
26505;DHT22;19493;48.042;7.584;2023-03-23T14:52:17;18.00;75.50
26505;DHT22;19493;48.042;7.584;2023-03-23T14:54:46;18.00;75.40
26505;DHT22;19493;48.042;7.584;2023-03-23T14:59:43;17.90;75.40
26505;DHT22;19493;48.042;7.584;2023-03-23T15:04:56;17.90;76.10
26505;DHT22;19493;48.042;7.584;2023-03-23T15:07:26;17.90;76.70
26505;DHT22;19493;48.042;7.584;2023-03-23T15:09:53;17.80;77.00
26505;DHT22;19493;48.042;7.584;2023-03-23T15:12:24;17.80;92.70
26505;DHT22;19493;48.042;7.584;2023-03-23T15:14:54;17.20;81.30
